Atlantic - Newfoundland: Past 24 Hour Conditions

 

Nickerson Bank - 44251

11:00 PM AST 24 January 2015Buoy position: 46.45N 53.38W
Disclaimer

This table is a summary of hourly weather conditions for the past 24 hours.
Please note that these observations might not always be representative of weather conditions over their associated marine area.

Date / Time
(AST)
Wind(knots) Wave height(m) Wave period(s) Pressure(kPa) Air tempC) Water tempC)
24 January 2015
23:00 SSE 18 gust 21 1.7 7.0 101.1 2 3
22:00 SSE 16 gust 19 1.7 7.0 101.2 2 3
21:00 SSE 14 gust 16 1.6 7.0 101.4 2 2
20:00 S 14 gust 18 1.6 7.0 101.5 1 2
19:00 S 12 gust 16 1.6 7.0 101.6 1 3
18:00 S 8 gust 10 1.6 7.0 101.5 1 2
17:00 SSW 12 gust 16 1.8 6.0 101.6 1 2
16:00 SSW 16 gust 18 1.9 6.0 101.5 0 2
15:00 SSW 16 gust 19 2.0 7.0 101.5 0 2
14:00 SW 18 gust 21 2.0 8.0 101.5 0 2
13:00 SW 19 gust 23 2.0 8.0 101.6 -1 2
12:00 SW 16 gust 21 1.9 8.0 101.5 -1 2
11:00 SW 19 gust 23 2.1 8.0 101.5 -1 2
10:00 SW 16 gust 21 2.0 9.0 101.5 -1 2
9:00 WSW 16 gust 19 2.1 9.0 101.5 -2 2
8:00 W 14 gust 18 2.4 10.0 101.4 -2 2
7:00 W 14 gust 19 2.2 10.0 101.4 -2 2
6:00 W 18 gust 21 2.8 10.0 101.3 -2 2
5:00 W 19 gust 23 2.7 10.0 101.3 -2 2
4:00 WNW 19 gust 23 2.9 10.0 101.2 -2 2
3:00 W 21 gust 27 3.2 10.0 101.2 -3 2
2:00 N/A N/A N/A N/A N/A N/A
1:00 W 25 gust 31 3.5 8.0 101.0 -3 2
0:00 W 23 gust 29 3.5 8.0 100.9 -3 2
23 January 2015
23:00 W 21 gust 27 3.3 8.0 100.8 -3 3
Map of Atlantic - Newfoundland marine weather areas Southwestern Grand Banks - 44138 Banquereau - 44139 Tail of the Bank - 44140 Nickerson Bank - 44251 Northeast Burgeo Bank - 44255 Blanc-Sablon Airport Cap Whittle Chevery Natashquan Airport Heath Point Miscou Island Grand Étang Ingonish Beach North Mountain St.Paul Island J.A. Douglas McCurdy Sydney Airport Charlottetown Airport East Point North Cape Argentia Bonavista Burgeo Cape Race Corner Brook Daniel's Harbour Englee Ferolle Point La Scie Port aux Basques Rocky Harbour Sagona Island St. Anthony Airport St. John's Int'l Airport St. Lawrence Stephenville Airport Twillingate Winterland Wreckhouse Cartwright Airport Mary's Harbour Grates Cove Pool's Island Marticot Island Long Pond Îles de la Madeleine Airport
Legend:
buoy Buoy
land station Land Station

Atlantic - Newfoundland Area

Another Region

What we are doing

Date modified: